Time;durP1;ratioP1;P1;durP2;ratioP2;P2;SDS_P1;SDS_P2;PMS_P1;PMS_P2;Temp;Humidity;BMP_temperature;BMP_pressure;BME280_temperature;BME280_humidity;BME280_pressure;Samples;Min_cycle;Max_cycle;Signal;HPM_P1;HPM_P2
2022/08/18 00:02:28;;;;;;;7.40;5.32;;;18.60;99.90;;;;;;5039872;28;20282;-83
2022/08/18 00:04:54;;;;;;;7.85;6.43;;;18.60;99.90;;;;;;5074684;28;20657;-83
2022/08/18 00:07:24;;;;;;;8.43;5.25;;;18.60;99.90;;;;;;5074694;28;20193;-84
2022/08/18 00:09:51;;;;;;;7.00;5.05;;;18.50;99.90;;;;;;5074653;28;20166;-84
2022/08/18 00:12:22;;;;;;;10.07;4.40;;;18.50;99.90;;;;;;5074373;28;20188;-84
2022/08/18 00:14:48;;;;;;;6.95;5.97;;;18.50;99.90;;;;;;5074257;28;20163;-83
2022/08/18 00:17:15;;;;;;;9.70;4.88;;;18.60;99.90;;;;;;5056400;28;20585;-84
2022/08/18 00:19:41;;;;;;;5.70;4.10;;;18.60;99.90;;;;;;5056505;28;20175;-83
2022/08/18 00:22:07;;;;;;;7.68;5.20;;;18.60;99.90;;;;;;5074498;28;20712;-83
2022/08/18 00:24:33;;;;;;;9.32;5.25;;;18.60;99.90;;;;;;5073772;28;20267;-83
2022/08/18 00:26:58;;;;;;;8.15;5.30;;;18.50;99.90;;;;;;5056160;28;20643;-83
2022/08/18 00:29:24;;;;;;;8.05;5.25;;;18.50;99.90;;;;;;5074459;28;20263;-83
2022/08/18 00:31:50;;;;;;;7.97;5.03;;;;;;;;;;5074284;28;20198;-83
2022/08/18 00:34:16;;;;;;;9.02;4.72;;;18.40;99.90;;;;;;5056277;28;20236;-84
2022/08/18 00:36:42;;;;;;;5.47;4.22;;;18.40;99.90;;;;;;5074267;28;20263;-83
2022/08/18 00:39:08;;;;;;;6.18;4.78;;;18.40;99.90;;;;;;5073493;28;20187;-83
2022/08/18 00:41:34;;;;;;;8.13;4.40;;;18.40;99.90;;;;;;5073043;28;20515;-83
2022/08/18 00:44:00;;;;;;;7.30;5.20;;;18.30;99.90;;;;;;5073910;28;20203;-83
2022/08/18 00:46:32;;;;;;;7.30;4.97;;;18.30;99.90;;;;;;5073573;28;20512;-83
2022/08/18 00:48:58;;;;;;;7.07;4.72;;;18.30;99.90;;;;;;5073979;28;20199;-82
2022/08/18 00:51:36;;;;;;;7.45;4.85;;;18.30;99.90;;;;;;5073852;28;20182;-83
2022/08/18 00:54:10;;;;;;;9.50;5.43;;;18.20;99.90;;;;;;5074004;28;20248;-83
2022/08/18 00:56:47;;;;;;;8.35;5.25;;;18.20;99.90;;;;;;5073600;28;20175;-83
2022/08/18 00:59:16;;;;;;;8.07;4.97;;;18.20;99.90;;;;;;5074199;28;20172;-82
2022/08/18 01:01:43;;;;;;;8.13;5.55;;;18.20;99.90;;;;;;5073455;28;20623;-83
2022/08/18 01:04:17;;;;;;;8.38;5.30;;;18.20;99.90;;;;;;5055845;28;20179;-83
2022/08/18 01:07:07;;;;;;;8.18;5.95;;;18.20;99.90;;;;;;5073349;28;20256;-83
2022/08/18 01:09:34;;;;;;;9.07;5.38;;;18.10;99.90;;;;;;5073102;28;20632;-82
2022/08/18 01:11:59;;;;;;;7.80;5.43;;;18.10;99.90;;;;;;5073440;28;20178;-83
2022/08/18 01:14:25;;;;;;;9.82;6.82;;;18.10;99.90;;;;;;5072998;28;20187;-83
2022/08/18 01:22:31;;;;;;;9.13;6.10;;;18.10;99.90;;;;;;5057967;28;20182;-84
2022/08/18 01:27:44;;;;;;;9.75;5.82;;;18.00;99.90;;;;;;5072744;28;20190;-83
2022/08/18 01:30:16;;;;;;;10.65;6.47;;;18.00;99.90;;;;;;5072766;28;20636;-83
2022/08/18 01:32:46;;;;;;;12.10;6.35;;;18.00;99.90;;;;;;5072979;28;20171;-83
2022/08/18 01:35:15;;;;;;;9.52;5.78;;;18.00;99.90;;;;;;5072031;28;20199;-84
2022/08/18 01:37:42;;;;;;;8.60;5.60;;;17.90;99.90;;;;;;5053825;28;20280;-83
2022/08/18 01:40:10;;;;;;;10.07;6.50;;;17.90;99.90;;;;;;5072486;28;20286;-83
2022/08/18 01:42:37;;;;;;;15.05;7.00;;;17.90;99.90;;;;;;5072030;28;20230;-83
2022/08/18 01:45:06;;;;;;;7.70;5.68;;;17.90;99.90;;;;;;5054846;28;20245;-83
2022/08/18 01:47:33;;;;;;;11.55;7.30;;;17.90;99.90;;;;;;5071513;28;20183;-83
2022/08/18 01:49:59;;;;;;;9.40;6.47;;;17.90;99.90;;;;;;5072229;28;20171;-83
2022/08/18 01:52:26;;;;;;;10.18;6.47;;;17.80;99.90;;;;;;5072513;28;20206;-84
2022/08/18 01:54:52;;;;;;;12.45;6.53;;;17.80;99.90;;;;;;5072416;28;20183;-83
2022/08/18 01:57:19;;;;;;;10.63;7.22;;;17.80;99.90;;;;;;5072476;28;20190;-83
2022/08/18 01:59:45;;;;;;;10.80;7.32;;;17.80;99.90;;;;;;5071517;28;20203;-83
2022/08/18 02:02:15;;;;;;;8.15;6.18;;;17.80;99.90;;;;;;5036921;28;20211;-83
2022/08/18 02:04:41;;;;;;;10.13;6.45;;;17.80;99.90;;;;;;5070874;28;20194;-84
2022/08/18 02:07:10;;;;;;;9.90;5.72;;;17.70;99.90;;;;;;5071473;28;20268;-83
2022/08/18 02:09:38;;;;;;;10.05;6.60;;;17.70;99.90;;;;;;5071702;28;20187;-83
2022/08/18 02:12:06;;;;;;;11.13;6.50;;;17.70;99.90;;;;;;5072624;28;20240;-83
2022/08/18 02:14:33;;;;;;;10.20;7.28;;;17.60;99.90;;;;;;5072108;28;20221;-84
2022/08/18 02:17:00;;;;;;;9.93;5.82;;;17.70;99.90;;;;;;5072367;28;20182;-83
2022/08/18 02:19:26;;;;;;;8.75;5.95;;;17.70;99.90;;;;;;5072115;28;20172;-84
2022/08/18 02:21:52;;;;;;;8.82;5.50;;;17.70;99.90;;;;;;5072300;28;20179;-82
2022/08/18 02:24:18;;;;;;;11.48;6.63;;;17.80;99.90;;;;;;5054339;28;20663;-82
2022/08/18 02:26:44;;;;;;;6.97;5.82;;;17.80;99.90;;;;;;5071758;28;20207;-83
2022/08/18 02:29:10;;;;;;;10.93;5.47;;;17.80;99.90;;;;;;5037641;28;20628;-83
2022/08/18 02:31:35;;;;;;;8.13;6.03;;;17.80;99.90;;;;;;5053662;28;20201;-83
2022/08/18 02:34:01;;;;;;;9.07;6.32;;;;;;;;;;5072130;28;20687;-83
2022/08/18 02:36:27;;;;;;;8.90;6.22;;;17.30;99.90;;;;;;5062923;28;20183;-85
2022/08/18 02:38:53;;;;;;;13.48;6.50;;;17.80;99.90;;;;;;5089433;28;20652;-83
2022/08/18 02:41:19;;;;;;;9.23;6.00;;;17.80;99.90;;;;;;5086413;28;20182;-83
2022/08/18 02:43:47;;;;;;;10.68;6.53;;;17.80;99.90;;;;;;5071268;28;20247;-84
2022/08/18 02:46:12;;;;;;;8.82;5.85;;;19.40;99.90;;;;;;5054363;28;20285;-83
2022/08/18 02:48:38;;;;;;;11.93;6.95;;;17.90;99.90;;;;;;5071995;28;20183;-83
2022/08/18 02:51:04;;;;;;;8.30;5.80;;;17.80;99.90;;;;;;5071923;28;20182;-83
2022/08/18 02:53:30;;;;;;;8.25;6.20;;;17.80;99.90;;;;;;5053781;28;20608;-84
2022/08/18 02:56:16;;;;;;;7.45;5.95;;;17.80;99.90;;;;;;5071857;28;20179;-83
2022/08/18 02:58:41;;;;;;;10.45;5.05;;;17.80;99.90;;;;;;5074419;28;20276;-82
2022/08/18 03:01:07;;;;;;;7.85;5.85;;;17.70;99.90;;;;;;5071940;28;20620;-83
2022/08/18 03:03:32;;;;;;;9.52;6.07;;;17.60;99.90;;;;;;5072990;28;20190;-83
2022/08/18 03:05:58;;;;;;;8.55;5.38;;;17.60;99.90;;;;;;5057615;28;20298;-84
2022/08/18 03:08:23;;;;;;;7.65;5.50;;;17.50;99.90;;;;;;5076749;28;20191;-85
2022/08/18 03:10:53;;;;;;;6.63;5.15;;;17.50;99.90;;;;;;5096420;28;20187;-82
2022/08/18 03:13:19;;;;;;;11.07;7.10;;;17.50;99.90;;;;;;5072110;28;20659;-83
2022/08/18 03:15:45;;;;;;;10.02;6.55;;;17.50;99.90;;;;;;5075353;28;20744;-83
2022/08/18 03:18:12;;;;;;;7.93;5.47;;;17.50;99.90;;;;;;5075976;28;20266;-83
2022/08/18 03:20:38;;;;;;;6.90;5.05;;;17.50;99.90;;;;;;5075620;28;20180;-83
2022/08/18 03:23:04;;;;;;;7.65;5.60;;;17.50;99.90;;;;;;5075735;28;20187;-84
2022/08/18 03:25:30;;;;;;;8.68;6.00;;;17.40;99.90;;;;;;5076155;28;20286;-83
2022/08/18 03:27:56;;;;;;;8.07;5.60;;;17.40;99.90;;;;;;5058520;28;20706;-83
2022/08/18 03:30:22;;;;;;;7.97;5.65;;;17.40;99.90;;;;;;5072672;28;20187;-85
2022/08/18 03:32:51;;;;;;;6.55;5.43;;;17.20;99.90;;;;;;5053155;28;20175;-84
2022/08/18 03:35:17;;;;;;;6.00;4.40;;;17.50;99.90;;;;;;5071673;28;20233;-83
2022/08/18 03:37:43;;;;;;;9.15;5.60;;;17.50;99.90;;;;;;5072662;28;20183;-82
2022/08/18 03:40:09;;;;;;;7.90;5.43;;;17.50;99.90;;;;;;5059192;28;20192;-83
2022/08/18 03:42:36;;;;;;;7.40;5.63;;;17.40;99.90;;;;;;5083851;28;20261;-84
2022/08/18 03:45:02;;;;;;;8.15;5.15;;;17.40;99.90;;;;;;5049000;28;20203;-82
2022/08/18 03:47:28;;;;;;;6.18;4.82;;;17.30;99.90;;;;;;5084609;28;20183;-83
2022/08/18 03:49:53;;;;;;;8.35;6.03;;;17.40;99.90;;;;;;5074715;28;20186;-83
2022/08/18 03:52:19;;;;;;;7.70;4.63;;;17.50;99.90;;;;;;5057741;28;20191;-83
2022/08/18 03:54:45;;;;;;;8.63;6.22;;;17.50;99.90;;;;;;5069939;28;20191;-85
2022/08/18 03:57:11;;;;;;;6.78;5.88;;;17.50;99.90;;;;;;5069229;28;20188;-84
2022/08/18 03:59:40;;;;;;;8.63;5.28;;;17.50;99.90;;;;;;5083336;28;20661;-84
2022/08/18 04:02:06;;;;;;;8.23;6.00;;;17.50;99.90;;;;;;5063221;28;20267;-84
2022/08/18 04:04:32;;;;;;;10.30;6.22;;;17.60;99.90;;;;;;5048544;28;20204;-84
2022/08/18 04:07:03;;;;;;;11.27;6.93;;;17.60;99.90;;;;;;5066164;28;20655;-84
2022/08/18 04:09:29;;;;;;;6.82;4.80;;;17.60;99.90;;;;;;5073903;28;20257;-84
2022/08/18 04:11:56;;;;;;;8.70;5.28;;;17.60;99.90;;;;;;5069955;28;20345;-84
2022/08/18 04:14:24;;;;;;;12.32;5.85;;;17.70;99.90;;;;;;5066589;28;20674;-84
2022/08/18 04:16:50;;;;;;;10.02;6.07;;;17.80;99.90;;;;;;5067844;28;20183;-84
2022/08/18 04:19:17;;;;;;;9.82;6.38;;;17.80;99.90;;;;;;5059556;28;20186;-84
2022/08/18 04:21:43;;;;;;;8.35;5.53;;;17.80;99.90;;;;;;5068059;28;20193;-83
2022/08/18 04:24:11;;;;;;;10.10;6.18;;;17.80;99.90;;;;;;5066941;28;20194;-83
2022/08/18 04:26:41;;;;;;;9.13;5.97;;;17.90;99.90;;;;;;5065542;28;20270;-85
2022/08/18 04:29:09;;;;;;;10.18;6.18;;;17.90;99.90;;;;;;5069260;28;20182;-83
2022/08/18 04:31:35;;;;;;;8.38;5.63;;;18.00;99.90;;;;;;5071786;28;20190;-84
2022/08/18 04:34:02;;;;;;;12.68;6.15;;;18.00;99.90;;;;;;5052435;28;20199;-83
2022/08/18 04:36:30;;;;;;;11.30;6.82;;;18.10;99.90;;;;;;5068557;28;20663;-84
2022/08/18 04:38:57;;;;;;;10.50;6.93;;;18.20;99.90;;;;;;5070420;28;20183;-84
2022/08/18 04:41:26;;;;;;;8.38;6.00;;;18.20;99.90;;;;;;5068819;28;20187;-84
2022/08/18 04:43:59;;;;;;;10.35;6.30;;;18.30;99.90;;;;;;5071564;28;20222;-84
2022/08/18 04:46:26;;;;;;;7.68;6.22;;;18.40;99.90;;;;;;5068462;28;20201;-84
2022/08/18 04:48:57;;;;;;;9.30;6.00;;;18.50;99.90;;;;;;5070631;28;20196;-84
2022/08/18 04:51:24;;;;;;;10.65;7.32;;;18.60;99.90;;;;;;5069822;28;20183;-84
2022/08/18 04:53:50;;;;;;;8.05;5.80;;;18.60;99.90;;;;;;5069254;28;20279;-84
2022/08/18 04:56:26;;;;;;;13.43;7.32;;;18.70;99.90;;;;;;5052051;28;20753;-84
2022/08/18 04:58:59;;;;;;;11.70;7.10;;;18.90;99.90;;;;;;5058642;28;20241;-86
2022/08/18 05:01:28;;;;;;;10.82;6.88;;;18.90;99.90;;;;;;5053376;28;20237;-85
2022/08/18 05:03:55;;;;;;;8.85;6.15;;;19.00;99.90;;;;;;5053304;28;20543;-85
2022/08/18 05:06:24;;;;;;;9.55;6.65;;;19.40;99.90;;;;;;5035755;28;20210;-85
2022/08/18 05:08:55;;;;;;;11.35;6.97;;;19.20;99.90;;;;;;5053565;28;20176;-84
2022/08/18 05:11:22;;;;;;;11.77;7.13;;;19.30;99.90;;;;;;5059439;28;20191;-84
2022/08/18 05:13:50;;;;;;;10.57;7.38;;;19.40;99.90;;;;;;5038954;28;20183;-84
2022/08/18 05:16:16;;;;;;;10.68;6.45;;;19.40;99.90;;;;;;5073489;28;20183;-84
2022/08/18 05:18:42;;;;;;;12.65;6.60;;;;;;;;;;5056632;28;20186;-85
2022/08/18 05:21:15;;;;;;;11.10;6.80;;;19.40;99.90;;;;;;5073890;28;20265;-85
2022/08/18 05:23:46;;;;;;;9.57;7.40;;;19.80;99.90;;;;;;5073795;28;20171;-86
2022/08/18 05:26:13;;;;;;;8.27;5.75;;;19.90;99.90;;;;;;5072941;28;20207;-86
2022/08/18 05:28:42;;;;;;;10.43;6.20;;;20.00;99.90;;;;;;5056189;28;20187;-86
2022/08/18 05:31:15;;;;;;;10.48;7.22;;;19.90;99.90;;;;;;5073292;28;20171;-86
2022/08/18 05:33:41;;;;;;;10.30;6.40;;;;;;;;;;5072482;28;20171;-85
2022/08/18 05:36:34;;;;;;;11.13;6.82;;;20.40;99.90;;;;;;5054223;28;20191;-86
2022/08/18 05:39:10;;;;;;;8.27;5.80;;;20.50;99.90;;;;;;5069846;28;20179;-86
2022/08/18 05:41:40;;;;;;;9.05;6.03;;;20.80;99.90;;;;;;5071739;28;20658;-86
2022/08/18 05:44:08;;;;;;;10.13;6.25;;;20.80;99.90;;;;;;5051235;28;20239;-86
2022/08/18 05:46:48;;;;;;;9.43;5.60;;;20.40;99.90;;;;;;5052878;28;20176;-86
2022/08/18 05:49:14;;;;;;;8.13;5.75;;;20.80;99.90;;;;;;5047790;28;20172;-85
2022/08/18 05:51:45;;;;;;;10.40;5.70;;;20.90;99.90;;;;;;5045519;28;20180;-86
2022/08/18 05:57:02;;;;;;;7.28;5.40;;;21.20;99.90;;;;;;5043074;28;20348;-86
2022/08/18 05:59:32;;;;;;;8.20;4.60;;;21.20;99.90;;;;;;5049509;28;20234;-86
2022/08/18 06:02:14;;;;;;;7.25;4.93;;;20.80;99.90;;;;;;5050092;28;20172;-85
2022/08/18 06:04:57;;;;;;;7.05;5.05;;;21.30;99.90;;;;;;5044573;28;20257;-86
2022/08/18 06:07:34;;;;;;;9.50;5.88;;;21.30;99.90;;;;;;5066462;28;20605;-87
2022/08/18 06:10:01;;;;;;;6.30;4.43;;;21.40;99.90;;;;;;5066608;28;20164;-86
2022/08/18 06:12:34;;;;;;;8.15;4.90;;;21.20;99.90;;;;;;5061954;28;20184;-85
2022/08/18 06:15:05;;;;;;;5.70;4.47;;;21.10;99.90;;;;;;5062045;28;20199;-86
2022/08/18 06:17:48;;;;;;;5.10;4.10;;;21.90;99.90;;;;;;5053587;28;20191;-86
2022/08/18 06:20:29;;;;;;;6.68;4.85;;;22.00;99.90;;;;;;5050401;28;20176;-86
2022/08/18 06:22:55;;;;;;;11.13;5.65;;;;;;;;;;5048183;28;20160;-87
2022/08/18 06:25:42;;;;;;;9.35;5.50;;;22.40;99.90;;;;;;5063743;28;20573;-87
2022/08/18 06:28:14;;;;;;;8.35;5.97;;;22.10;99.90;;;;;;5047470;28;20187;-86
2022/08/18 06:30:58;;;;;;;10.00;5.18;;;22.20;99.90;;;;;;5051873;28;20177;-86
2022/08/18 06:33:24;;;;;;;7.55;5.60;;;;;;;;;;5051607;28;20310;-85
2022/08/18 06:36:20;;;;;;;6.47;4.32;;;22.20;99.90;;;;;;5068585;28;20274;-85
2022/08/18 06:38:55;;;;;;;6.82;4.70;;;22.50;99.90;;;;;;5057772;28;20179;-86
2022/08/18 06:41:37;;;;;;;8.60;4.63;;;23.00;99.90;;;;;;5054613;28;20182;-86
2022/08/18 06:44:18;;;;;;;7.30;4.72;;;22.80;99.90;;;;;;5068884;28;20704;-85
2022/08/18 06:46:53;;;;;;;6.15;4.35;;;22.50;99.90;;;;;;5070684;28;20187;-86
2022/08/18 06:49:27;;;;;;;5.47;4.22;;;23.40;99.90;;;;;;5063194;28;20174;-86
2022/08/18 06:51:53;;;;;;;8.63;4.97;;;23.20;99.90;;;;;;5054046;28;20171;-86
2022/08/18 06:54:18;;;;;;;6.18;4.38;;;22.90;99.90;;;;;;5051820;28;20191;-85
2022/08/18 06:56:50;;;;;;;7.50;4.20;;;23.10;99.90;;;;;;5053296;28;20175;-85
2022/08/18 06:59:28;;;;;;;9.52;4.75;;;22.60;99.90;;;;;;5069640;28;20660;-85
2022/08/18 07:02:03;;;;;;;6.13;4.30;;;23.20;99.90;;;;;;5070002;28;20175;-86
2022/08/18 07:04:42;;;;;;;4.95;3.80;;;23.10;99.90;;;;;;5068805;28;20162;-85
2022/08/18 07:07:28;;;;;;;4.70;3.88;;;22.70;99.90;;;;;;5069672;28;20258;-84
2022/08/18 07:09:54;;;;;;;6.47;3.78;;;;;;;;;;5052675;28;20195;-84
2022/08/18 07:12:28;;;;;;;8.40;5.25;;;23.50;99.90;;;;;;5035627;28;20228;-85
2022/08/18 07:15:00;;;;;;;4.60;3.78;;;23.60;99.90;;;;;;5070322;28;20170;-85
2022/08/18 07:17:26;;;;;;;4.50;3.55;;;;;;;;;;5069447;28;20186;-85
2022/08/18 07:20:00;;;;;;;5.68;3.80;;;24.30;99.90;;;;;;5051372;28;20187;-85
2022/08/18 07:22:27;;;;;;;5.07;3.45;;;;;;;;;;5070482;28;20191;-84
2022/08/18 07:24:55;;;;;;;6.07;3.55;;;23.90;99.90;;;;;;5069490;28;20207;-87
2022/08/18 07:27:40;;;;;;;5.72;3.60;;;24.00;99.90;;;;;;5049090;28;20194;-85
2022/08/18 07:30:18;;;;;;;6.07;4.20;;;24.30;99.90;;;;;;5050204;28;20194;-84
2022/08/18 07:32:49;;;;;;;7.32;3.78;;;24.10;99.90;;;;;;5050543;28;20228;-85
2022/08/18 07:35:22;;;;;;;8.45;3.40;;;24.20;99.90;;;;;;5050644;28;20253;-84
2022/08/18 07:37:53;;;;;;;4.65;3.33;;;24.20;99.90;;;;;;5068690;28;20640;-84
2022/08/18 07:40:56;;;;;;;4.43;3.33;;;24.20;99.90;;;;;;5052058;28;20266;-85
2022/08/18 07:43:40;;;;;;;3.80;3.28;;;24.40;99.90;;;;;;5055803;28;20284;-84
2022/08/18 07:46:20;;;;;;;5.60;4.07;;;24.50;99.90;;;;;;5068355;28;20214;-84
2022/08/18 07:48:47;;;;;;;5.22;3.70;;;;;;;;;;5068346;28;20282;-85
2022/08/18 07:51:42;;;;;;;6.30;3.50;;;24.40;99.90;;;;;;5051827;28;20278;-86
2022/08/18 07:54:17;;;;;;;4.55;2.67;;;24.50;99.90;;;;;;5051345;28;20906;-85
2022/08/18 07:57:05;;;;;;;5.38;3.28;;;24.30;99.90;;;;;;5072269;28;20255;-86
2022/08/18 08:00:00;;;;;;;4.80;3.33;;;25.30;99.90;;;;;;5070829;28;20671;-85
2022/08/18 08:02:37;;;;;;;4.80;3.17;;;24.80;99.90;;;;;;5069913;28;20258;-85
2022/08/18 08:05:18;;;;;;;7.00;3.10;;;24.80;99.90;;;;;;5069214;28;20902;-88
2022/08/18 08:07:47;;;;;;;6.28;4.20;;;24.90;99.90;;;;;;5070726;28;20190;-85
2022/08/18 08:10:29;;;;;;;5.22;4.28;;;25.00;99.90;;;;;;5072133;28;20171;-84
2022/08/18 08:13:30;;;;;;;9.10;3.83;;;25.10;99.90;;;;;;5069892;28;20261;-84
2022/08/18 08:16:25;;;;;;;4.50;3.35;;;25.10;99.90;;;;;;5073380;28;20248;-83
2022/08/18 08:19:17;;;;;;;5.55;3.45;;;24.90;99.90;;;;;;5059690;28;20183;-83
2022/08/18 08:21:52;;;;;;;5.03;3.83;;;24.80;99.90;;;;;;5055283;28;20210;-83
2022/08/18 08:24:26;;;;;;;4.82;3.13;;;24.80;99.90;;;;;;5072313;28;20183;-83
2022/08/18 08:26:52;;;;;;;5.57;3.53;;;;;;;;;;5071427;28;20225;-83
2022/08/18 08:29:39;;;;;;;4.60;3.10;;;25.10;99.90;;;;;;5073776;28;20171;-84
2022/08/18 08:32:24;;;;;;;4.55;3.17;;;25.40;99.90;;;;;;5055771;28;20175;-86
2022/08/18 08:35:16;;;;;;;5.65;3.47;;;25.20;99.90;;;;;;5055117;28;20214;-84
2022/08/18 08:37:57;;;;;;;5.50;3.25;;;25.60;99.90;;;;;;5073083;28;20183;-84
2022/08/18 08:40:27;;;;;;;5.60;3.22;;;25.70;99.90;;;;;;5052717;28;20185;-85
2022/08/18 08:42:56;;;;;;;9.38;3.45;;;25.50;99.90;;;;;;5069995;28;20225;-84
2022/08/18 08:45:29;;;;;;;4.88;3.22;;;25.20;99.90;;;;;;5053980;28;20265;-84
2022/08/18 08:47:58;;;;;;;6.40;3.28;;;26.00;99.90;;;;;;5070678;28;20179;-85
2022/08/18 08:50:27;;;;;;;4.95;3.20;;;25.70;99.90;;;;;;5072609;28;20183;-84
2022/08/18 08:53:06;;;;;;;5.13;3.28;;;26.10;99.90;;;;;;5074987;28;20233;-84
2022/08/18 08:55:35;;;;;;;3.42;2.78;;;25.90;99.90;;;;;;5070646;28;20179;-84
2022/08/18 08:58:21;;;;;;;4.35;3.13;;;26.50;99.90;;;;;;5073993;28;20500;-84
2022/08/18 09:00:48;;;;;;;4.57;3.25;;;26.00;99.90;;;;;;5071935;28;20246;-84
2022/08/18 09:03:36;;;;;;;6.60;3.95;;;26.10;99.90;;;;;;5072076;28;20593;-84
2022/08/18 09:06:22;;;;;;;4.43;2.90;;;26.10;99.90;;;;;;5073144;28;20647;-85
2022/08/18 09:09:30;;;;;;;4.55;2.78;;;26.10;99.90;;;;;;5073111;28;20170;-84
2022/08/18 09:12:13;;;;;;;3.63;2.72;;;26.30;99.90;;;;;;5070762;28;20417;-84
2022/08/18 09:15:15;;;;;;;3.90;3.17;;;26.50;99.90;;;;;;5070389;28;20183;-85
2022/08/18 09:18:33;;;;;;;6.90;3.80;;;26.50;99.90;;;;;;5036252;28;20195;-85
2022/08/18 09:21:29;;;;;;;7.45;3.85;;;26.60;99.90;;;;;;5054871;28;20656;-84
2022/08/18 09:24:25;;;;;;;3.65;2.60;;;26.80;99.90;;;;;;5071043;28;20666;-84
2022/08/18 09:26:53;;;;;;;4.40;3.20;;;26.80;99.90;;;;;;5054492;28;20179;-84
2022/08/18 09:29:25;;;;;;;3.58;3.03;;;27.10;99.90;;;;;;5072480;28;20178;-85
2022/08/18 09:32:19;;;;;;;6.43;3.20;;;27.10;99.90;;;;;;5072549;28;20178;-86
2022/08/18 09:35:04;;;;;;;6.28;3.40;;;27.20;99.90;;;;;;5072154;28;20173;-84
2022/08/18 09:41:30;;;;;;;4.38;3.08;;;27.20;99.90;;;;;;5071648;28;20202;-85
2022/08/18 09:43:38;;;;;;;7.28;3.30;;;27.50;99.90;;;;;;5072861;28;20589;-85
2022/08/18 09:46:06;;;;;;;5.22;3.10;;;27.70;99.90;;;;;;5068221;28;20191;-84
2022/08/18 09:48:37;;;;;;;4.57;3.05;;;27.50;99.90;;;;;;5072824;28;20179;-84
2022/08/18 09:51:17;;;;;;;4.03;2.75;;;27.70;99.90;;;;;;5070522;28;20613;-84
2022/08/18 09:53:45;;;;;;;3.33;2.63;;;27.80;99.90;;;;;;5073514;28;20206;-84
2022/08/18 09:56:16;;;;;;;4.45;2.80;;;28.10;99.90;;;;;;5072906;28;20182;-87
2022/08/18 09:58:55;;;;;;;4.43;3.28;;;28.20;99.90;;;;;;5073367;28;20203;-86
2022/08/18 10:01:21;;;;;;;5.35;3.22;;;;;;;;;;5070147;28;20654;-85
2022/08/18 10:04:14;;;;;;;4.68;3.00;;;28.30;99.90;;;;;;5073309;28;20215;-85
2022/08/18 10:06:44;;;;;;;5.32;2.80;;;28.30;99.90;;;;;;5069124;28;20187;-85
2022/08/18 10:09:30;;;;;;;4.25;3.17;;;28.20;99.90;;;;;;5070832;28;20179;-85
2022/08/18 10:12:02;;;;;;;3.67;3.03;;;28.20;99.90;;;;;;5070764;28;20293;-85
2022/08/18 10:14:52;;;;;;;6.10;3.80;;;28.20;99.90;;;;;;5054173;28;20190;-84
2022/08/18 10:17:24;;;;;;;3.90;2.72;;;28.20;99.90;;;;;;5071182;28;20186;-84
2022/08/18 10:20:05;;;;;;;3.55;2.88;;;28.30;99.90;;;;;;5070258;28;20220;-86
2022/08/18 10:22:52;;;;;;;3.60;2.65;;;28.60;99.90;;;;;;5049344;28;20171;-82
2022/08/18 10:25:39;;;;;;;6.82;2.60;;;28.60;99.90;;;;;;5034966;28;20203;-81
2022/08/18 10:28:08;;;;;;;7.65;3.20;;;28.60;99.90;;;;;;5072232;28;20274;-81
2022/08/18 10:30:35;;;;;;;4.22;2.78;;;28.50;99.90;;;;;;5072116;28;20513;-82
2022/08/18 10:33:06;;;;;;;4.03;2.80;;;28.40;99.90;;;;;;5072620;28;20183;-81
2022/08/18 10:35:37;;;;;;;5.68;2.85;;;28.10;99.90;;;;;;5068248;28;20227;-82
2022/08/18 10:38:11;;;;;;;4.10;2.92;;;28.00;99.90;;;;;;5053146;28;20183;-82
2022/08/18 10:40:43;;;;;;;3.97;2.95;;;28.00;99.90;;;;;;5069759;28;20163;-82
2022/08/18 10:43:49;;;;;;;3.65;2.63;;;28.00;99.90;;;;;;5053457;28;20238;-85
2022/08/18 10:46:25;;;;;;;3.65;2.75;;;28.20;99.90;;;;;;5008803;28;20200;-88
2022/08/18 10:49:24;;;;;;;4.10;3.17;;;28.40;99.90;;;;;;5011563;28;20192;-83
2022/08/18 10:51:57;;;;;;;4.15;2.40;;;28.50;99.90;;;;;;5055580;28;20245;-84
2022/08/18 10:54:26;;;;;;;3.58;2.90;;;28.50;99.90;;;;;;5051727;28;20495;-82
2022/08/18 10:57:00;;;;;;;7.20;2.58;;;28.90;99.90;;;;;;5072272;28;20167;-83
2022/08/18 10:59:52;;;;;;;3.75;2.38;;;28.90;99.90;;;;;;5072197;28;20167;-83
2022/08/18 11:02:47;;;;;;;4.15;2.90;;;29.10;99.90;;;;;;5071641;28;20647;-82
2022/08/18 11:05:19;;;;;;;3.35;2.55;;;28.90;99.90;;;;;;5069337;28;20636;-84
2022/08/18 11:07:53;;;;;;;5.40;3.05;;;28.70;99.90;;;;;;5053396;28;20187;-84
2022/08/18 11:10:23;;;;;;;3.72;2.90;;;28.50;99.90;;;;;;5072066;28;20163;-84
2022/08/18 11:13:10;;;;;;;3.00;2.58;;;28.50;99.90;;;;;;5071879;28;20304;-84
2022/08/18 11:15:39;;;;;;;4.82;2.88;;;28.70;99.90;;;;;;5066974;28;20191;-83
2022/08/18 11:18:28;;;;;;;2.45;2.10;;;29.00;99.90;;;;;;5071724;28;20195;-83
2022/08/18 11:21:31;;;;;;;3.20;2.60;;;29.20;99.90;;;;;;5042636;28;20229;-84
2022/08/18 11:24:05;;;;;;;4.97;3.38;;;29.20;99.90;;;;;;5052652;28;20244;-82
2022/08/18 11:26:33;;;;;;;5.38;3.25;;;29.10;99.90;;;;;;5074156;28;20730;-80
2022/08/18 11:29:16;;;;;;;3.35;2.80;;;29.20;99.90;;;;;;5075414;28;20183;-84
2022/08/18 11:31:42;;;;;;;4.15;2.50;;;29.40;99.90;;;;;;5072943;28;20163;-83
2022/08/18 11:34:15;;;;;;;3.20;2.55;;;29.70;99.90;;;;;;5074477;28;20997;-82
2022/08/18 11:36:40;;;;;;;3.60;2.88;;;30.00;99.90;;;;;;5055175;28;20706;-82
2022/08/18 11:39:10;;;;;;;3.10;2.60;;;30.10;99.90;;;;;;5056470;28;20187;-81
2022/08/18 11:41:37;;;;;;;2.97;2.60;;;30.20;99.90;;;;;;5075041;28;20193;-82
2022/08/18 11:44:06;;;;;;;5.03;3.00;;;30.10;99.90;;;;;;5074656;28;20239;-83
2022/08/18 11:46:39;;;;;;;3.97;3.00;;;29.70;99.90;;;;;;5075051;28;20779;-83
2022/08/18 11:49:19;;;;;;;3.35;2.70;;;29.40;99.90;;;;;;5057361;28;20199;-82
2022/08/18 11:52:24;;;;;;;3.30;2.33;;;29.20;99.90;;;;;;5074636;28;20249;-82
2022/08/18 11:54:50;;;;;;;3.92;2.58;;;29.10;99.90;;;;;;5071061;28;20182;-82
2022/08/18 11:57:47;;;;;;;3.35;2.92;;;29.20;99.90;;;;;;5057255;28;20183;-82
2022/08/18 12:00:47;;;;;;;2.65;2.10;;;29.10;99.90;;;;;;5055052;28;20175;-82
2022/08/18 12:03:18;;;;;;;7.55;3.13;;;28.80;99.90;;;;;;5073415;28;20183;-83
2022/08/18 12:05:48;;;;;;;3.45;2.58;;;28.60;99.90;;;;;;5072850;28;20207;-82
2022/08/18 12:08:42;;;;;;;12.10;3.00;;;28.40;99.90;;;;;;5073151;28;20226;-82
2022/08/18 12:11:18;;;;;;;4.10;2.72;;;28.40;99.90;;;;;;5051182;28;20206;-82
2022/08/18 12:13:46;;;;;;;4.60;2.75;;;28.80;99.90;;;;;;5071188;28;20216;-82
2022/08/18 12:16:30;;;;;;;3.97;2.58;;;29.20;99.90;;;;;;5070809;28;20259;-82
2022/08/18 12:19:07;;;;;;;2.92;2.45;;;29.50;99.90;;;;;;5072729;28;20676;-84
2022/08/18 12:21:41;;;;;;;6.30;2.30;;;29.90;99.90;;;;;;5072499;28;20163;-81
2022/08/18 12:24:14;;;;;;;4.03;2.80;;;30.00;99.90;;;;;;5072172;28;20206;-81
2022/08/18 12:26:40;;;;;;;4.90;2.75;;;30.50;99.90;;;;;;5070753;28;20652;-84
2022/08/18 12:29:05;;;;;;;4.30;2.38;;;30.30;99.90;;;;;;5073075;28;20217;-83
2022/08/18 12:31:31;;;;;;;3.28;2.55;;;30.60;99.90;;;;;;5056254;28;20534;-84
2022/08/18 12:33:57;;;;;;;5.25;3.25;;;;;;;;;;5056798;28;20187;-84
2022/08/18 12:36:23;;;;;;;3.20;2.38;;;;;;;;;;5074287;28;20643;-83
2022/08/18 12:38:48;;;;;;;3.63;2.78;;;30.60;94.70;;;;;;5074471;28;20187;-83
2022/08/18 12:41:15;;;;;;;2.90;2.30;;;;;;;;;;5074105;28;20180;-83
2022/08/18 12:43:41;;;;;;;5.35;3.15;;;;;;;;;;5074020;28;20219;-82
2022/08/18 12:46:07;;;;;;;2.92;2.35;;;;;;;;;;5056225;28;20206;-83
2022/08/18 12:48:33;;;;;;;3.50;2.58;;;;;;;;;;5073793;28;20190;-83
2022/08/18 12:50:59;;;;;;;2.80;2.17;;;30.70;99.90;;;;;;5073851;28;20191;-82
2022/08/18 12:53:25;;;;;;;4.88;2.97;;;31.10;99.90;;;;;;5074074;28;20171;-84
2022/08/18 12:55:51;;;;;;;4.72;2.83;;;;;;;;;;5055913;28;20251;-82
2022/08/18 12:58:17;;;;;;;7.28;4.15;;;30.10;99.90;;;;;;5073673;28;20706;-82
2022/08/18 13:00:43;;;;;;;4.60;2.88;;;;;;;;;;5072565;28;20183;-85
2022/08/18 13:03:09;;;;;;;3.33;2.58;;;;;;;;;;5073292;28;20183;-82
2022/08/18 13:05:36;;;;;;;3.22;2.38;;;30.20;94.80;;;;;;5073210;28;20664;-82
2022/08/18 13:08:04;;;;;;;3.30;2.35;;;30.90;99.90;;;;;;5074712;28;20240;-82
2022/08/18 13:10:30;;;;;;;4.63;2.97;;;;;;;;;;5074321;28;20221;-87
2022/08/18 13:12:55;;;;;;;3.40;2.47;;;30.30;99.90;;;;;;5073381;28;20195;-84
2022/08/18 13:15:23;;;;;;;2.65;2.03;;;;;;;;;;5073607;28;20211;-84
2022/08/18 13:17:49;;;;;;;3.70;2.63;;;;;;;;;;5073681;28;20646;-84
2022/08/18 13:20:15;;;;;;;8.27;2.55;;;30.30;93.40;;;;;;5073748;28;20635;-85
2022/08/18 13:22:42;;;;;;;3.03;2.28;;;;;;;;;;5073191;28;20207;-85
2022/08/18 13:25:11;;;;;;;3.08;2.78;;;29.50;99.90;;;;;;5055639;28;20561;-86
2022/08/18 13:27:38;;;;;;;2.95;2.30;;;29.80;96.20;;;;;;5074392;28;20218;-84
2022/08/18 13:30:08;;;;;;;4.95;2.25;;;29.30;99.90;;;;;;5073729;28;20621;-83
2022/08/18 13:32:34;;;;;;;2.42;2.22;;;;;;;;;;5074050;28;20175;-84
2022/08/18 13:35:00;;;;;;;3.75;2.38;;;29.70;99.90;;;;;;5074038;28;20704;-83
2022/08/18 13:37:27;;;;;;;3.75;2.35;;;;;;;;;;5074213;28;20179;-82
2022/08/18 13:39:53;;;;;;;3.60;2.42;;;;;;;;;;5073998;28;20502;-83